Keswick, United Kingdom

10:06 AM BST on July 02, 2015 (GMT +0100)
Manesty | | Change Station
CLOSE
Current Station
Personal Weather Station
Location: Keswick, CUMBRIA
Elevation: 285 ft
Nearby Weather Stations

Elev 285 ft 54.55 °N, 3.16 °W | Updated 10 seconds ago

Mostly Cloudy
Mostly Cloudy
64.2 °F
Feels Like 64.2 °F
N
5.0
Wind Variable Wind from South
Gusts 9.0 mph

Today
High -- | Low -- °F
--% Chance of Precip.
Yesterday
High -- | Low -- °F
Precip. -- in
4:41 AM 9:51 PM
Full, 100% visible
Pressure 29.98 in
Visibility 6.2 miles
Clouds Scattered Clouds 1500 ft
Mostly Cloudy 2000 ft
Dew Point 64 °F
Humidity 99%
Rainfall 0.11 in
Snow Depth Not available.
UV 3 out of 12
Pollen Not available.
Air Quality Not available.
Flu Activity Not available.
METAR EGNC 020850Z 28006KT 220V300 9999 SCT015 BKN020 18/15 Q1015

More Conditions Fewer Conditions

Pressure 29.98 in
Visibility 6.2 miles
Clouds Scattered Clouds 1500 ft
Mostly Cloudy 2000 ft
Dew Point 64 °F
Humidity 99%
Rainfall 0.11 in
Snow Depth Not available.
UV 3 out of 12
Pollen Not available.
Air Quality Not available.
Flu Activity Not available.
METAR EGNC 020850Z 28006KT 220V300 9999 SCT015 BKN020 18/15 Q1015

More Conditions Fewer Conditions

10-Day Weather Forecast

×

Almanac

Astronomy

Jul. 02, 2015 Rise Set
Actual Time
Civil Twilight
Nautical Twilight
Astronomical Twilight
Moon
Length of Visible Light
Length of Day
Tomorrow will be .
, % of the Moon is Illuminated

Today's Extremes

Country Highs Country Lows

Community

WunderPhotos

Upload Photos

1,834,423 photos uploaded!

WunderBlogs® & News

Nearby

Air Quality

  Air Quality AQ Index Pollutant
Not available.

Snow Depth

Station Depth Elevation

Earthquake Activity

City Distance Mag. Time & Date
Minimum magnitude displayed is 2.5.

Coastal Water Temperatures

Place Temperature

Stations

Nearby Weather Stations

Station Location Temp. Windchill Dew Point Humidity Wind Precip. Elev Updated Type